Chippewa on the Lake, Ohio
Current Conditions -  °F | °C
As of 8:34 AM on Wednesday 22 Oct 2014 (Local Time) from KBJJ Reporting Station
Overcast Overcast  
Wind Chill: 44°   Ceiling: 1000
Heat Index: 48°   Visibility: 8mi
Dew Point: 44°   Wind: 8mph
Humidity: 86%   Direction: 10°N
Pressure: 30.21"   Gusts: NA
Location:  41.0673°N, 81.9012°W
Report Text: KBJJ 221234Z AUTO 01007KT 8SM OVC010 09/07 A3021 RMK AO2 CIG 009V014 T00890067 TSNO
Loading
Personal Weather Stations






























Interactive Weather Map
Tropical Storm Tracking
New forecast layout! Learn more

10-Day Weather Forecast

Advertisements
Track Severe Weather on mobile